createdAt,value
2023-02-18T00:04:56.546Z,100005.9
2023-02-18T00:10:31.819Z,100004.8
2023-02-18T00:16:08.683Z,99998.1
2023-02-18T00:21:46.644Z,99992.6
2023-02-18T00:27:22.106Z,99998.5
2023-02-18T00:32:57.086Z,100002.8
2023-02-18T00:38:32.579Z,99996.6
2023-02-18T00:44:14.623Z,99992.3
2023-02-18T00:49:49.580Z,99985.5
2023-02-18T00:55:24.553Z,99979.3
2023-02-18T01:01:00.109Z,99980.2
2023-02-18T01:06:57.177Z,99983.2
2023-02-18T01:12:31.159Z,99978.4
2023-02-18T01:18:06.010Z,99974.8
2023-02-18T01:23:41.443Z,99969.4
2023-02-18T01:29:17.467Z,99965.9
2023-02-18T01:34:52.847Z,99964.3
2023-02-18T01:40:27.965Z,99963.4
2023-02-18T01:46:04.089Z,99964.2
2023-02-18T01:51:39.996Z,99964.2
2023-02-18T01:57:15.117Z,99961.8
2023-02-18T02:02:51.757Z,99959.5
2023-02-18T02:08:48.494Z,99956.1
2023-02-18T02:14:22.368Z,99952.8
2023-02-18T02:20:01.435Z,99946.5
2023-02-18T02:25:36.632Z,99939.7
2023-02-18T02:31:11.793Z,99939
2023-02-18T02:36:48.128Z,99933.9
2023-02-18T02:42:23.273Z,99931.3
2023-02-18T02:48:19.480Z,99929.6
2023-02-18T02:54:04.999Z,99927.3
2023-02-18T02:59:40.346Z,99922.6
2023-02-18T03:05:16.986Z,99919.4
2023-02-18T03:10:53.080Z,99915.5
2023-02-18T03:16:29.257Z,99909
2023-02-18T03:22:04.449Z,99901.4
2023-02-18T03:27:39.756Z,99900.9
2023-02-18T03:33:15.018Z,99897.8
2023-02-18T03:38:50.302Z,99903.7
2023-02-18T03:44:25.851Z,99898.4
2023-02-18T03:50:02.131Z,99897.2
2023-02-18T03:55:37.526Z,99890.9
2023-02-18T04:01:13.087Z,99891.4
2023-02-18T04:07:11.209Z,99892.2
2023-02-18T04:12:45.121Z,99892.8
2023-02-18T04:18:20.508Z,99888.7
2023-02-18T04:24:05.273Z,99886
2023-02-18T04:29:40.320Z,99887.2
2023-02-18T04:35:16.143Z,99885.3
2023-02-18T04:40:51.475Z,99889.6
2023-02-18T04:46:27.249Z,99892.7
2023-02-18T04:52:03.152Z,99890.6
2023-02-18T04:57:38.492Z,99890.4
2023-02-18T05:03:16.109Z,99887.2
2023-02-18T05:09:12.915Z,99885.8
2023-02-18T05:14:45.870Z,99884.7
2023-02-18T05:20:22.061Z,99889.6
2023-02-18T05:25:57.046Z,99890.4
2023-02-18T05:32:01.528Z,99889
2023-02-18T05:37:37.183Z,99891.7
2023-02-18T05:43:13.072Z,99894.5
2023-02-18T05:48:49.226Z,99888
2023-02-18T05:54:24.324Z,99888.5
2023-02-18T06:00:00.883Z,99884.3
2023-02-18T06:05:36.067Z,99882.1
2023-02-18T06:11:11.928Z,99875
2023-02-18T06:16:47.055Z,99874
2023-02-18T06:22:22.556Z,99870.5
2023-02-18T06:27:58.933Z,99870.3
2023-02-18T06:33:39.220Z,99870.5
2023-02-18T06:39:16.001Z,99878.2
2023-02-18T06:44:56.485Z,99875.2
2023-02-18T06:50:32.813Z,99874.5
2023-02-18T06:56:09.785Z,99874.5
2023-02-18T07:01:46.181Z,99874.4
2023-02-18T07:07:51.568Z,99879.9
2023-02-18T07:13:24.996Z,99879.8
2023-02-18T07:19:00.521Z,99882.7
2023-02-18T07:24:35.573Z,99876.5
2023-02-18T07:30:11.195Z,99880.1
2023-02-18T07:35:46.728Z,99885
2023-02-18T07:41:22.751Z,99893.3
2023-02-18T07:46:57.710Z,99897.4
2023-02-18T07:52:34.048Z,99893.9
2023-02-18T07:58:10.255Z,99894.5
2023-02-18T08:04:31.207Z,99902
2023-02-18T08:10:07.105Z,99904.4
2023-02-18T08:15:42.258Z,99905.6
2023-02-18T08:21:33.018Z,99908.6
2023-02-18T08:27:08.516Z,99909.6
2023-02-18T08:32:43.704Z,99910.1
2023-02-18T08:38:19.813Z,99910.1
2023-02-18T08:43:54.958Z,99909.8
2023-02-18T08:49:30.908Z,99909.7
2023-02-18T08:55:08.714Z,99911.5
2023-02-18T09:00:44.049Z,99909.1
2023-02-18T09:06:41.066Z,99917.9
2023-02-18T09:12:14.174Z,99918.9
2023-02-18T09:17:49.956Z,99917.7
2023-02-18T09:23:25.308Z,99925
2023-02-18T09:29:00.758Z,99923.6
2023-02-18T09:34:36.148Z,99920.7
2023-02-18T09:40:15.823Z,99920
2023-02-18T09:45:51.335Z,99919
2023-02-18T09:51:27.534Z,99921.4
2023-02-18T09:57:02.524Z,99918
2023-02-18T10:02:45.861Z,99916.3
2023-02-18T10:08:22.072Z,99913.6
2023-02-18T10:14:00.421Z,99909.6
2023-02-18T10:19:45.090Z,99907.9
2023-02-18T10:25:33.174Z,99906.1
2023-02-18T10:31:10.940Z,99905.6
2023-02-18T10:36:48.761Z,99902
2023-02-18T10:42:25.216Z,99904
2023-02-18T10:48:00.468Z,99904.1
2023-02-18T10:53:38.825Z,99898.5
2023-02-18T10:59:14.211Z,99890.1
2023-02-18T11:04:51.373Z,99892.3
2023-02-18T11:10:28.435Z,99892.1
2023-02-18T11:16:03.370Z,99887.3
2023-02-18T11:21:40.324Z,99878.3
2023-02-18T11:27:15.583Z,99875.9
2023-02-18T11:32:50.832Z,99872
2023-02-18T11:38:25.967Z,99865.6
2023-02-18T11:44:01.114Z,99855.8
2023-02-18T11:49:41.602Z,99848.8
2023-02-18T11:55:16.851Z,99843.1
2023-02-18T12:00:52.278Z,99837.3
2023-02-18T12:06:35.615Z,99827
2023-02-18T12:12:33.844Z,99814.6
2023-02-18T12:18:09.399Z,99810.5
2023-02-18T12:23:47.620Z,99806.5
2023-02-18T12:29:23.119Z,99798.1
2023-02-18T12:35:19.393Z,99791.8
2023-02-18T12:41:18.265Z,99786.5
2023-02-18T12:46:54.676Z,99783.5
2023-02-18T12:52:39.401Z,99777.6
2023-02-18T12:58:20.846Z,99771.8
2023-02-18T13:04:04.027Z,99760.5
2023-02-18T13:10:03.152Z,99743.4
2023-02-18T13:15:40.975Z,99737.8
2023-02-18T13:21:16.036Z,99734
2023-02-18T13:27:04.082Z,99727.2
2023-02-18T13:32:41.582Z,99727.2
2023-02-18T13:38:24.349Z,99716.4
2023-02-18T13:44:01.016Z,99713.1
2023-02-18T13:49:39.923Z,99706.9
2023-02-18T13:55:15.121Z,99698.3
2023-02-18T14:00:59.986Z,99690.8
2023-02-18T14:07:06.466Z,99677.8
2023-02-18T14:12:39.876Z,99671
2023-02-18T14:18:30.751Z,99666
2023-02-18T14:24:06.950Z,99651.3
2023-02-18T14:29:42.710Z,99650
2023-02-18T14:35:25.469Z,99645.8
2023-02-18T14:41:09.777Z,99646
2023-02-18T14:46:46.754Z,99638.5
2023-02-18T14:52:23.198Z,99625.9
2023-02-18T14:57:58.592Z,99620.2
2023-02-18T15:03:36.386Z,99615.7
2023-02-18T15:09:13.041Z,99611.7
2023-02-18T15:14:49.575Z,99600.8
2023-02-18T15:20:50.074Z,99593.7
2023-02-18T15:26:32.755Z,99590.4
2023-02-18T15:32:15.494Z,99588.5
2023-02-18T15:38:01.709Z,99585.2
2023-02-18T15:43:44.594Z,99579.7
2023-02-18T15:49:19.653Z,99569.4
2023-02-18T15:54:58.451Z,99569.9
2023-02-18T16:00:39.544Z,99569.4
2023-02-18T16:06:36.846Z,99564.3
2023-02-18T16:12:09.699Z,99560.9
2023-02-18T16:17:53.852Z,99559.3
2023-02-18T16:23:36.649Z,99556.1
2023-02-18T16:29:17.540Z,99557.2
2023-02-18T16:34:59.986Z,99560.5
2023-02-18T16:40:43.531Z,99561
2023-02-18T16:46:18.562Z,99564.6
2023-02-18T16:52:26.764Z,99566.6
2023-02-18T16:58:24.640Z,99569.7
2023-02-18T17:04:02.835Z,99566.9
2023-02-18T17:09:45.277Z,99566.2
2023-02-18T17:15:29.674Z,99569.8
2023-02-18T17:21:34.229Z,99566.3
2023-02-18T17:27:27.336Z,99572
2023-02-18T17:33:03.937Z,99577.1
2023-02-18T17:38:42.672Z,99581.9
2023-02-18T17:44:17.881Z,99586.9
2023-02-18T17:50:10.184Z,99590.5
2023-02-18T17:55:45.100Z,99599.4
2023-02-18T18:01:22.214Z,99603.6
2023-02-18T18:07:19.543Z,99609.4
2023-02-18T18:12:52.573Z,99617.4
2023-02-18T18:18:27.579Z,99624.7
2023-02-18T18:24:03.692Z,99632.4
2023-02-18T18:29:39.308Z,99641.6
2023-02-18T18:35:14.511Z,99646
2023-02-18T18:40:50.817Z,99655
2023-02-18T18:46:26.990Z,99660.2
2023-02-18T18:52:03.031Z,99665.2
2023-02-18T18:57:38.063Z,99672.4
2023-02-18T19:03:24.407Z,99670.7
2023-02-18T19:09:23.186Z,99673.3
2023-02-18T19:14:59.688Z,99676.4
2023-02-18T19:20:36.902Z,99671.2
2023-02-18T19:26:12.355Z,99683.8
2023-02-18T19:31:47.998Z,99682.8
2023-02-18T19:37:24.646Z,99688
2023-02-18T19:43:00.383Z,99684.8
2023-02-18T19:48:35.558Z,99683.1
2023-02-18T19:54:10.584Z,99686.7
2023-02-18T19:59:45.884Z,99688.5
2023-02-18T20:05:21.048Z,99689.7
2023-02-18T20:10:56.516Z,99693.9
2023-02-18T20:16:31.652Z,99700.1
2023-02-18T20:22:06.657Z,99702.2
2023-02-18T20:28:01.971Z,99710.4
2023-02-18T20:33:40.589Z,99715.3
2023-02-18T20:39:17.716Z,99715.9
2023-02-18T20:44:53.747Z,99715.2
2023-02-18T20:50:28.597Z,99714.6
2023-02-18T20:56:04.104Z,99720.2
2023-02-18T21:01:41.853Z,99718
2023-02-18T21:07:39.354Z,99719.1
2023-02-18T21:13:12.023Z,99713.8
2023-02-18T21:18:47.319Z,99714.9
2023-02-18T21:24:26.832Z,99714.2
2023-02-18T21:30:02.371Z,99714.8
2023-02-18T21:35:38.077Z,99713.9
2023-02-18T21:41:14.005Z,99716.9
2023-02-18T21:46:50.610Z,99719
2023-02-18T21:52:26.340Z,99716.3
2023-02-18T21:58:01.660Z,99719.5
2023-02-18T22:03:43.857Z,99724.8
2023-02-18T22:09:20.251Z,99723.4
2023-02-18T22:14:57.108Z,99729
2023-02-18T22:20:31.881Z,99726.6
2023-02-18T22:26:07.991Z,99723
2023-02-18T22:31:44.810Z,99720.6
2023-02-18T22:37:21.518Z,99726.4
2023-02-18T22:42:57.703Z,99725.2
2023-02-18T22:48:35.122Z,99728.7
2023-02-18T22:54:10.081Z,99727.2
2023-02-18T22:59:45.777Z,99722.8
2023-02-18T23:05:21.098Z,99724
2023-02-18T23:10:55.924Z,99725.3
2023-02-18T23:16:30.968Z,99723.4
2023-02-18T23:22:06.499Z,99724.1
2023-02-18T23:27:42.802Z,99721.4
2023-02-18T23:33:19.530Z,99726
2023-02-18T23:38:54.661Z,99723.8
2023-02-18T23:44:30.851Z,99718.8
2023-02-18T23:50:06.535Z,99723
2023-02-18T23:55:41.464Z,99721.5
